sensor_id;sensor_type;location;lat;lon;timestamp;P1;durP1;ratioP1;P2;durP2;ratioP2
48795;SDS011;34607;48.520;-1.330;2023-09-07T06:52:06;14.02;;;6.50;;
48795;SDS011;34607;48.520;-1.330;2023-09-07T06:54:36;13.60;;;6.18;;
48795;SDS011;34607;48.520;-1.330;2023-09-07T06:57:06;12.32;;;7.32;;
48795;SDS011;34607;48.520;-1.330;2023-09-07T06:59:33;12.00;;;6.35;;
48795;SDS011;34607;48.520;-1.330;2023-09-07T07:02:00;12.85;;;6.45;;
48795;SDS011;34607;48.520;-1.330;2023-09-07T07:04:30;13.82;;;6.43;;
48795;SDS011;34607;48.520;-1.330;2023-09-07T07:06:58;16.75;;;5.93;;
48795;SDS011;34607;48.520;-1.330;2023-09-07T07:09:27;11.55;;;6.10;;
48795;SDS011;34607;48.520;-1.330;2023-09-07T07:11:55;9.98;;;6.05;;
48795;SDS011;34607;48.520;-1.330;2023-09-07T07:14:22;22.80;;;6.70;;
48795;SDS011;34607;48.520;-1.330;2023-09-07T07:16:49;13.38;;;6.65;;
48795;SDS011;34607;48.520;-1.330;2023-09-07T07:19:17;10.52;;;6.32;;
48795;SDS011;34607;48.520;-1.330;2023-09-07T07:21:44;15.07;;;6.68;;
48795;SDS011;34607;48.520;-1.330;2023-09-07T07:24:11;11.02;;;6.05;;
48795;SDS011;34607;48.520;-1.330;2023-09-07T07:26:40;10.95;;;5.63;;
48795;SDS011;34607;48.520;-1.330;2023-09-07T07:29:07;9.02;;;6.30;;
48795;SDS011;34607;48.520;-1.330;2023-09-07T07:31:35;13.55;;;5.97;;
48795;SDS011;34607;48.520;-1.330;2023-09-07T07:34:02;11.43;;;5.72;;
48795;SDS011;34607;48.520;-1.330;2023-09-07T07:36:29;6.75;;;5.10;;
48795;SDS011;34607;48.520;-1.330;2023-09-07T07:38:58;11.13;;;5.38;;
48795;SDS011;34607;48.520;-1.330;2023-09-07T07:41:25;8.07;;;5.57;;
48795;SDS011;34607;48.520;-1.330;2023-09-07T07:43:54;11.35;;;4.75;;
48795;SDS011;34607;48.520;-1.330;2023-09-07T07:46:22;8.73;;;5.00;;
48795;SDS011;34607;48.520;-1.330;2023-09-07T07:48:49;9.57;;;4.85;;
48795;SDS011;34607;48.520;-1.330;2023-09-07T07:51:17;12.65;;;4.68;;
48795;SDS011;34607;48.520;-1.330;2023-09-07T07:53:47;17.67;;;6.68;;
48795;SDS011;34607;48.520;-1.330;2023-09-07T07:56:14;8.70;;;4.60;;
48795;SDS011;34607;48.520;-1.330;2023-09-07T07:58:42;10.88;;;4.43;;
48795;SDS011;34607;48.520;-1.330;2023-09-07T08:01:16;6.63;;;4.47;;
48795;SDS011;34607;48.520;-1.330;2023-09-07T08:03:45;9.75;;;4.53;;
48795;SDS011;34607;48.520;-1.330;2023-09-07T08:06:12;8.75;;;4.25;;
48795;SDS011;34607;48.520;-1.330;2023-09-07T08:08:40;11.30;;;4.15;;
48795;SDS011;34607;48.520;-1.330;2023-09-07T08:11:08;9.68;;;4.10;;
48795;SDS011;34607;48.520;-1.330;2023-09-07T08:13:37;10.20;;;4.65;;
48795;SDS011;34607;48.520;-1.330;2023-09-07T08:16:05;6.15;;;4.30;;
48795;SDS011;34607;48.520;-1.330;2023-09-07T08:18:34;10.93;;;4.68;;
48795;SDS011;34607;48.520;-1.330;2023-09-07T08:21:02;9.43;;;5.07;;
48795;SDS011;34607;48.520;-1.330;2023-09-07T08:23:29;5.30;;;4.20;;
48795;SDS011;34607;48.520;-1.330;2023-09-07T08:25:57;10.10;;;5.28;;
48795;SDS011;34607;48.520;-1.330;2023-09-07T08:28:25;8.93;;;4.78;;
48795;SDS011;34607;48.520;-1.330;2023-09-07T08:30:54;9.90;;;4.50;;
48795;SDS011;34607;48.520;-1.330;2023-09-07T08:33:24;8.27;;;4.32;;
48795;SDS011;34607;48.520;-1.330;2023-09-07T08:35:55;6.72;;;4.03;;
48795;SDS011;34607;48.520;-1.330;2023-09-07T08:38:25;8.55;;;4.30;;
48795;SDS011;34607;48.520;-1.330;2023-09-07T08:40:53;6.65;;;4.32;;
48795;SDS011;34607;48.520;-1.330;2023-09-07T08:43:21;10.00;;;4.43;;
48795;SDS011;34607;48.520;-1.330;2023-09-07T08:45:50;8.25;;;3.85;;
48795;SDS011;34607;48.520;-1.330;2023-09-07T08:48:25;8.25;;;4.28;;
48795;SDS011;34607;48.520;-1.330;2023-09-07T08:50:56;6.28;;;4.30;;
48795;SDS011;34607;48.520;-1.330;2023-09-07T08:53:23;9.18;;;4.43;;
48795;SDS011;34607;48.520;-1.330;2023-09-07T08:55:51;7.30;;;4.80;;
48795;SDS011;34607;48.520;-1.330;2023-09-07T08:58:18;6.43;;;4.03;;
48795;SDS011;34607;48.520;-1.330;2023-09-07T09:00:45;8.65;;;4.55;;
48795;SDS011;34607;48.520;-1.330;2023-09-07T09:03:14;10.82;;;4.28;;
48795;SDS011;34607;48.520;-1.330;2023-09-07T09:05:41;11.63;;;4.32;;
48795;SDS011;34607;48.520;-1.330;2023-09-07T09:08:12;12.00;;;4.85;;
48795;SDS011;34607;48.520;-1.330;2023-09-07T09:10:39;7.78;;;4.00;;
48795;SDS011;34607;48.520;-1.330;2023-09-07T09:13:07;9.73;;;4.40;;
48795;SDS011;34607;48.520;-1.330;2023-09-07T09:15:34;8.90;;;4.22;;
48795;SDS011;34607;48.520;-1.330;2023-09-07T09:18:11;6.93;;;3.92;;
48795;SDS011;34607;48.520;-1.330;2023-09-07T09:20:39;6.57;;;4.07;;
48795;SDS011;34607;48.520;-1.330;2023-09-07T09:23:07;7.55;;;4.20;;
48795;SDS011;34607;48.520;-1.330;2023-09-07T09:25:35;6.43;;;4.35;;
48795;SDS011;34607;48.520;-1.330;2023-09-07T09:28:02;5.07;;;3.75;;
48795;SDS011;34607;48.520;-1.330;2023-09-07T09:30:31;12.30;;;4.10;;
48795;SDS011;34607;48.520;-1.330;2023-09-07T09:32:58;10.95;;;4.53;;
48795;SDS011;34607;48.520;-1.330;2023-09-07T09:35:25;11.43;;;4.32;;
48795;SDS011;34607;48.520;-1.330;2023-09-07T09:37:53;8.60;;;3.90;;
48795;SDS011;34607;48.520;-1.330;2023-09-07T09:40:20;9.38;;;4.15;;
48795;SDS011;34607;48.520;-1.330;2023-09-07T09:42:49;11.13;;;4.22;;
48795;SDS011;34607;48.520;-1.330;2023-09-07T09:45:20;8.68;;;4.47;;
48795;SDS011;34607;48.520;-1.330;2023-09-07T09:47:48;12.68;;;4.32;;
48795;SDS011;34607;48.520;-1.330;2023-09-07T09:50:18;7.20;;;4.05;;
48795;SDS011;34607;48.520;-1.330;2023-09-07T09:52:46;6.22;;;4.00;;
48795;SDS011;34607;48.520;-1.330;2023-09-07T09:55:14;7.50;;;3.95;;
48795;SDS011;34607;48.520;-1.330;2023-09-07T09:57:42;9.00;;;4.25;;
48795;SDS011;34607;48.520;-1.330;2023-09-07T10:00:11;6.53;;;3.92;;
48795;SDS011;34607;48.520;-1.330;2023-09-07T10:02:54;14.25;;;3.83;;
48795;SDS011;34607;48.520;-1.330;2023-09-07T10:05:26;7.70;;;3.80;;
48795;SDS011;34607;48.520;-1.330;2023-09-07T10:07:59;11.07;;;3.97;;
48795;SDS011;34607;48.520;-1.330;2023-09-07T10:10:34;10.82;;;3.78;;
48795;SDS011;34607;48.520;-1.330;2023-09-07T10:13:02;4.97;;;3.50;;
48795;SDS011;34607;48.520;-1.330;2023-09-07T10:15:31;5.97;;;3.80;;
48795;SDS011;34607;48.520;-1.330;2023-09-07T10:18:09;7.00;;;3.97;;
48795;SDS011;34607;48.520;-1.330;2023-09-07T10:20:47;5.10;;;4.28;;
48795;SDS011;34607;48.520;-1.330;2023-09-07T10:23:16;7.55;;;3.97;;
48795;SDS011;34607;48.520;-1.330;2023-09-07T10:25:46;7.35;;;4.22;;
48795;SDS011;34607;48.520;-1.330;2023-09-07T10:28:18;5.90;;;4.15;;
48795;SDS011;34607;48.520;-1.330;2023-09-07T10:30:47;9.75;;;3.55;;
48795;SDS011;34607;48.520;-1.330;2023-09-07T10:33:24;6.65;;;4.18;;
48795;SDS011;34607;48.520;-1.330;2023-09-07T10:35:51;9.52;;;3.72;;
48795;SDS011;34607;48.520;-1.330;2023-09-07T10:38:18;6.13;;;3.40;;
48795;SDS011;34607;48.520;-1.330;2023-09-07T10:40:46;6.72;;;4.03;;
48795;SDS011;34607;48.520;-1.330;2023-09-07T10:43:14;6.70;;;3.80;;
48795;SDS011;34607;48.520;-1.330;2023-09-07T10:45:43;11.43;;;3.88;;
48795;SDS011;34607;48.520;-1.330;2023-09-07T10:48:13;9.90;;;4.00;;
48795;SDS011;34607;48.520;-1.330;2023-09-07T10:50:43;6.70;;;4.40;;
48795;SDS011;34607;48.520;-1.330;2023-09-07T10:53:12;6.38;;;3.88;;
48795;SDS011;34607;48.520;-1.330;2023-09-07T10:55:39;7.10;;;3.90;;
48795;SDS011;34607;48.520;-1.330;2023-09-07T10:58:08;8.15;;;3.78;;
48795;SDS011;34607;48.520;-1.330;2023-09-07T11:00:36;6.47;;;3.80;;
48795;SDS011;34607;48.520;-1.330;2023-09-07T11:03:07;8.57;;;3.90;;
48795;SDS011;34607;48.520;-1.330;2023-09-07T11:08:06;7.03;;;4.13;;
48795;SDS011;34607;48.520;-1.330;2023-09-07T11:10:34;13.32;;;3.65;;
48795;SDS011;34607;48.520;-1.330;2023-09-07T11:13:02;7.25;;;3.20;;
48795;SDS011;34607;48.520;-1.330;2023-09-07T11:15:30;5.90;;;3.28;;
48795;SDS011;34607;48.520;-1.330;2023-09-07T11:17:59;7.25;;;3.28;;
48795;SDS011;34607;48.520;-1.330;2023-09-07T11:20:31;7.95;;;3.55;;
48795;SDS011;34607;48.520;-1.330;2023-09-07T11:23:00;10.73;;;3.65;;
48795;SDS011;34607;48.520;-1.330;2023-09-07T11:25:27;5.82;;;3.20;;
48795;SDS011;34607;48.520;-1.330;2023-09-07T11:27:54;5.97;;;4.05;;
48795;SDS011;34607;48.520;-1.330;2023-09-07T11:30:22;13.27;;;4.07;;
48795;SDS011;34607;48.520;-1.330;2023-09-07T11:32:50;6.78;;;3.40;;
48795;SDS011;34607;48.520;-1.330;2023-09-07T11:35:26;6.10;;;4.03;;
48795;SDS011;34607;48.520;-1.330;2023-09-07T11:37:53;7.90;;;3.85;;
48795;SDS011;34607;48.520;-1.330;2023-09-07T11:40:21;13.63;;;3.92;;
48795;SDS011;34607;48.520;-1.330;2023-09-07T11:42:49;8.88;;;3.70;;
48795;SDS011;34607;48.520;-1.330;2023-09-07T11:45:16;10.60;;;4.03;;
48795;SDS011;34607;48.520;-1.330;2023-09-07T11:47:43;9.23;;;3.90;;
48795;SDS011;34607;48.520;-1.330;2023-09-07T11:50:11;9.27;;;3.30;;
48795;SDS011;34607;48.520;-1.330;2023-09-07T11:52:38;11.88;;;3.85;;
48795;SDS011;34607;48.520;-1.330;2023-09-07T11:55:05;9.82;;;2.90;;
48795;SDS011;34607;48.520;-1.330;2023-09-07T11:57:34;8.88;;;3.47;;
48795;SDS011;34607;48.520;-1.330;2023-09-07T12:00:01;7.18;;;3.70;;
48795;SDS011;34607;48.520;-1.330;2023-09-07T12:02:37;8.18;;;3.35;;
48795;SDS011;34607;48.520;-1.330;2023-09-07T12:05:05;9.85;;;3.97;;
48795;SDS011;34607;48.520;-1.330;2023-09-07T12:07:33;11.45;;;3.83;;
48795;SDS011;34607;48.520;-1.330;2023-09-07T12:10:00;10.55;;;3.90;;
48795;SDS011;34607;48.520;-1.330;2023-09-07T12:12:27;11.07;;;3.88;;
48795;SDS011;34607;48.520;-1.330;2023-09-07T12:14:55;6.82;;;3.20;;
48795;SDS011;34607;48.520;-1.330;2023-09-07T12:17:23;10.35;;;3.47;;
48795;SDS011;34607;48.520;-1.330;2023-09-07T12:19:50;6.55;;;3.53;;
48795;SDS011;34607;48.520;-1.330;2023-09-07T12:22:17;10.13;;;3.53;;
48795;SDS011;34607;48.520;-1.330;2023-09-07T12:24:44;9.48;;;3.72;;
48795;SDS011;34607;48.520;-1.330;2023-09-07T12:27:11;8.77;;;3.70;;
48795;SDS011;34607;48.520;-1.330;2023-09-07T12:29:38;11.95;;;4.78;;
48795;SDS011;34607;48.520;-1.330;2023-09-07T12:32:07;11.25;;;3.80;;
48795;SDS011;34607;48.520;-1.330;2023-09-07T12:34:34;13.40;;;3.72;;
48795;SDS011;34607;48.520;-1.330;2023-09-07T12:37:02;15.25;;;4.25;;
48795;SDS011;34607;48.520;-1.330;2023-09-07T12:39:30;11.18;;;4.43;;
48795;SDS011;34607;48.520;-1.330;2023-09-07T12:41:57;11.40;;;3.88;;
48795;SDS011;34607;48.520;-1.330;2023-09-07T12:44:24;14.55;;;4.07;;
48795;SDS011;34607;48.520;-1.330;2023-09-07T12:46:51;13.27;;;4.25;;
48795;SDS011;34607;48.520;-1.330;2023-09-07T12:49:20;11.95;;;4.32;;
48795;SDS011;34607;48.520;-1.330;2023-09-07T12:51:47;11.05;;;4.00;;
48795;SDS011;34607;48.520;-1.330;2023-09-07T12:54:14;14.95;;;4.15;;
48795;SDS011;34607;48.520;-1.330;2023-09-07T12:56:41;15.75;;;5.35;;
48795;SDS011;34607;48.520;-1.330;2023-09-07T12:59:08;9.30;;;3.85;;
48795;SDS011;34607;48.520;-1.330;2023-09-07T13:01:35;11.65;;;4.10;;
48795;SDS011;34607;48.520;-1.330;2023-09-07T13:04:02;15.88;;;4.65;;
48795;SDS011;34607;48.520;-1.330;2023-09-07T13:06:31;14.23;;;4.10;;
48795;SDS011;34607;48.520;-1.330;2023-09-07T13:08:58;14.93;;;4.63;;
48795;SDS011;34607;48.520;-1.330;2023-09-07T13:11:25;12.25;;;4.38;;
48795;SDS011;34607;48.520;-1.330;2023-09-07T13:13:52;18.55;;;4.80;;
48795;SDS011;34607;48.520;-1.330;2023-09-07T13:16:19;19.17;;;5.60;;
48795;SDS011;34607;48.520;-1.330;2023-09-07T13:18:46;21.52;;;4.93;;
48795;SDS011;34607;48.520;-1.330;2023-09-07T13:21:13;18.10;;;4.85;;
48795;SDS011;34607;48.520;-1.330;2023-09-07T13:23:41;18.02;;;5.00;;
48795;SDS011;34607;48.520;-1.330;2023-09-07T13:26:08;14.75;;;4.07;;
48795;SDS011;34607;48.520;-1.330;2023-09-07T13:28:36;19.42;;;5.35;;
48795;SDS011;34607;48.520;-1.330;2023-09-07T13:31:03;22.83;;;4.95;;
48795;SDS011;34607;48.520;-1.330;2023-09-07T13:33:31;20.58;;;5.13;;
48795;SDS011;34607;48.520;-1.330;2023-09-07T13:35:58;20.17;;;4.90;;
48795;SDS011;34607;48.520;-1.330;2023-09-07T13:38:25;13.45;;;4.15;;
48795;SDS011;34607;48.520;-1.330;2023-09-07T13:40:53;17.52;;;4.97;;
48795;SDS011;34607;48.520;-1.330;2023-09-07T13:43:20;10.90;;;4.65;;
48795;SDS011;34607;48.520;-1.330;2023-09-07T13:45:47;18.15;;;4.80;;
48795;SDS011;34607;48.520;-1.330;2023-09-07T13:48:14;10.95;;;4.03;;
48795;SDS011;34607;48.520;-1.330;2023-09-07T13:50:41;16.13;;;5.07;;
48795;SDS011;34607;48.520;-1.330;2023-09-07T13:53:08;13.15;;;4.60;;
48795;SDS011;34607;48.520;-1.330;2023-09-07T13:55:35;14.30;;;4.20;;
48795;SDS011;34607;48.520;-1.330;2023-09-07T13:58:06;14.43;;;4.53;;
48795;SDS011;34607;48.520;-1.330;2023-09-07T14:00:33;19.45;;;5.47;;
48795;SDS011;34607;48.520;-1.330;2023-09-07T14:03:00;10.88;;;5.18;;
48795;SDS011;34607;48.520;-1.330;2023-09-07T14:05:28;13.50;;;5.18;;
48795;SDS011;34607;48.520;-1.330;2023-09-07T14:07:55;11.00;;;4.20;;
48795;SDS011;34607;48.520;-1.330;2023-09-07T14:10:23;13.70;;;4.65;;
48795;SDS011;34607;48.520;-1.330;2023-09-07T14:12:50;15.05;;;4.30;;
48795;SDS011;34607;48.520;-1.330;2023-09-07T14:15:18;12.00;;;5.00;;
48795;SDS011;34607;48.520;-1.330;2023-09-07T14:17:45;11.48;;;4.57;;
48795;SDS011;34607;48.520;-1.330;2023-09-07T14:20:12;8.65;;;3.80;;
48795;SDS011;34607;48.520;-1.330;2023-09-07T14:22:39;18.48;;;4.63;;
48795;SDS011;34607;48.520;-1.330;2023-09-07T14:25:07;12.98;;;4.60;;
48795;SDS011;34607;48.520;-1.330;2023-09-07T14:27:34;10.00;;;3.80;;
48795;SDS011;34607;48.520;-1.330;2023-09-07T14:30:01;18.67;;;4.55;;
48795;SDS011;34607;48.520;-1.330;2023-09-07T14:32:30;10.57;;;4.45;;
48795;SDS011;34607;48.520;-1.330;2023-09-07T14:34:57;7.68;;;4.25;;
48795;SDS011;34607;48.520;-1.330;2023-09-07T14:37:24;10.48;;;4.10;;
48795;SDS011;34607;48.520;-1.330;2023-09-07T14:39:51;9.60;;;4.90;;
48795;SDS011;34607;48.520;-1.330;2023-09-07T14:42:23;9.23;;;3.80;;
48795;SDS011;34607;48.520;-1.330;2023-09-07T14:44:50;13.10;;;5.03;;
48795;SDS011;34607;48.520;-1.330;2023-09-07T14:47:18;14.00;;;4.00;;
48795;SDS011;34607;48.520;-1.330;2023-09-07T14:49:52;11.23;;;4.25;;
48795;SDS011;34607;48.520;-1.330;2023-09-07T14:52:19;17.80;;;5.03;;
48795;SDS011;34607;48.520;-1.330;2023-09-07T14:54:47;14.00;;;4.35;;
48795;SDS011;34607;48.520;-1.330;2023-09-07T14:57:14;12.00;;;4.85;;
48795;SDS011;34607;48.520;-1.330;2023-09-07T14:59:41;5.57;;;3.50;;
48795;SDS011;34607;48.520;-1.330;2023-09-07T15:02:08;12.27;;;4.35;;
48795;SDS011;34607;48.520;-1.330;2023-09-07T15:04:35;8.88;;;4.28;;
48795;SDS011;34607;48.520;-1.330;2023-09-07T15:07:04;14.25;;;4.47;;
48795;SDS011;34607;48.520;-1.330;2023-09-07T15:09:32;15.23;;;5.13;;
48795;SDS011;34607;48.520;-1.330;2023-09-07T15:11:59;10.95;;;4.05;;
48795;SDS011;34607;48.520;-1.330;2023-09-07T15:14:26;10.20;;;4.60;;
48795;SDS011;34607;48.520;-1.330;2023-09-07T15:16:53;14.23;;;4.85;;
48795;SDS011;34607;48.520;-1.330;2023-09-07T15:19:20;10.32;;;4.38;;
48795;SDS011;34607;48.520;-1.330;2023-09-07T15:21:47;11.13;;;4.70;;
48795;SDS011;34607;48.520;-1.330;2023-09-07T15:24:15;15.05;;;5.55;;
48795;SDS011;34607;48.520;-1.330;2023-09-07T15:26:44;13.27;;;4.97;;
48795;SDS011;34607;48.520;-1.330;2023-09-07T15:29:12;13.68;;;4.50;;
48795;SDS011;34607;48.520;-1.330;2023-09-07T15:31:39;16.25;;;4.28;;
48795;SDS011;34607;48.520;-1.330;2023-09-07T15:34:06;15.40;;;4.45;;
48795;SDS011;34607;48.520;-1.330;2023-09-07T15:36:33;11.27;;;5.07;;
48795;SDS011;34607;48.520;-1.330;2023-09-07T15:39:01;11.18;;;4.38;;
48795;SDS011;34607;48.520;-1.330;2023-09-07T15:41:30;16.33;;;5.07;;
48795;SDS011;34607;48.520;-1.330;2023-09-07T15:43:57;11.93;;;4.57;;
48795;SDS011;34607;48.520;-1.330;2023-09-07T15:46:24;12.00;;;5.45;;
48795;SDS011;34607;48.520;-1.330;2023-09-07T15:48:52;18.92;;;5.03;;
48795;SDS011;34607;48.520;-1.330;2023-09-07T15:51:19;18.50;;;4.20;;
48795;SDS011;34607;48.520;-1.330;2023-09-07T15:53:46;12.95;;;4.47;;
48795;SDS011;34607;48.520;-1.330;2023-09-07T15:56:13;14.48;;;4.53;;
48795;SDS011;34607;48.520;-1.330;2023-09-07T15:58:42;14.13;;;5.15;;
48795;SDS011;34607;48.520;-1.330;2023-09-07T16:01:09;13.10;;;4.95;;
48795;SDS011;34607;48.520;-1.330;2023-09-07T16:03:36;12.18;;;4.50;;
48795;SDS011;34607;48.520;-1.330;2023-09-07T16:06:03;16.85;;;5.15;;
48795;SDS011;34607;48.520;-1.330;2023-09-07T16:08:30;9.90;;;4.63;;
48795;SDS011;34607;48.520;-1.330;2023-09-07T16:10:58;15.45;;;4.90;;
48795;SDS011;34607;48.520;-1.330;2023-09-07T16:13:25;13.25;;;6.35;;
48795;SDS011;34607;48.520;-1.330;2023-09-07T16:15:54;18.90;;;5.18;;
48795;SDS011;34607;48.520;-1.330;2023-09-07T16:18:21;11.30;;;4.57;;
48795;SDS011;34607;48.520;-1.330;2023-09-07T16:20:48;12.77;;;5.22;;
48795;SDS011;34607;48.520;-1.330;2023-09-07T16:23:15;14.00;;;6.22;;
48795;SDS011;34607;48.520;-1.330;2023-09-07T16:25:42;13.40;;;4.80;;
48795;SDS011;34607;48.520;-1.330;2023-09-07T16:28:09;11.23;;;4.55;;
48795;SDS011;34607;48.520;-1.330;2023-09-07T16:30:36;10.27;;;5.13;;
48795;SDS011;34607;48.520;-1.330;2023-09-07T16:33:05;26.88;;;5.72;;
48795;SDS011;34607;48.520;-1.330;2023-09-07T16:35:32;17.25;;;5.15;;
48795;SDS011;34607;48.520;-1.330;2023-09-07T16:38:00;12.13;;;5.00;;
48795;SDS011;34607;48.520;-1.330;2023-09-07T16:40:27;15.82;;;5.13;;
48795;SDS011;34607;48.520;-1.330;2023-09-07T16:42:55;16.23;;;5.15;;
48795;SDS011;34607;48.520;-1.330;2023-09-07T16:45:22;16.25;;;5.70;;
48795;SDS011;34607;48.520;-1.330;2023-09-07T16:47:49;19.33;;;5.53;;
48795;SDS011;34607;48.520;-1.330;2023-09-07T16:50:17;15.00;;;6.35;;
48795;SDS011;34607;48.520;-1.330;2023-09-07T16:52:44;18.00;;;6.13;;
48795;SDS011;34607;48.520;-1.330;2023-09-07T16:55:12;18.42;;;5.85;;
48795;SDS011;34607;48.520;-1.330;2023-09-07T16:57:39;17.38;;;5.85;;
48795;SDS011;34607;48.520;-1.330;2023-09-07T17:00:06;17.38;;;5.40;;
48795;SDS011;34607;48.520;-1.330;2023-09-07T17:02:33;21.55;;;5.63;;
48795;SDS011;34607;48.520;-1.330;2023-09-07T17:05:01;13.73;;;5.60;;
48795;SDS011;34607;48.520;-1.330;2023-09-07T17:07:29;15.27;;;5.13;;
48795;SDS011;34607;48.520;-1.330;2023-09-07T17:09:56;17.98;;;5.18;;
48795;SDS011;34607;48.520;-1.330;2023-09-07T17:12:23;13.25;;;4.65;;
48795;SDS011;34607;48.520;-1.330;2023-09-07T17:14:50;16.85;;;6.00;;
48795;SDS011;34607;48.520;-1.330;2023-09-07T17:17:17;14.95;;;5.22;;
48795;SDS011;34607;48.520;-1.330;2023-09-07T17:19:44;15.40;;;6.00;;
48795;SDS011;34607;48.520;-1.330;2023-09-07T17:22:12;14.45;;;5.75;;
48795;SDS011;34607;48.520;-1.330;2023-09-07T17:24:40;12.77;;;5.25;;
48795;SDS011;34607;48.520;-1.330;2023-09-07T17:27:07;12.18;;;5.30;;
48795;SDS011;34607;48.520;-1.330;2023-09-07T17:29:36;19.05;;;6.75;;
48795;SDS011;34607;48.520;-1.330;2023-09-07T17:32:03;17.75;;;5.88;;
48795;SDS011;34607;48.520;-1.330;2023-09-07T17:34:30;23.83;;;6.28;;
48795;SDS011;34607;48.520;-1.330;2023-09-07T17:36:59;11.52;;;4.72;;
48795;SDS011;34607;48.520;-1.330;2023-09-07T17:39:27;11.35;;;5.05;;
48795;SDS011;34607;48.520;-1.330;2023-09-07T17:41:55;11.70;;;5.30;;
48795;SDS011;34607;48.520;-1.330;2023-09-07T17:44:22;15.68;;;5.32;;
48795;SDS011;34607;48.520;-1.330;2023-09-07T17:46:49;11.68;;;5.10;;
48795;SDS011;34607;48.520;-1.330;2023-09-07T17:49:16;12.38;;;5.80;;
48795;SDS011;34607;48.520;-1.330;2023-09-07T17:51:43;13.77;;;4.80;;
48795;SDS011;34607;48.520;-1.330;2023-09-07T17:54:10;10.07;;;5.47;;
48795;SDS011;34607;48.520;-1.330;2023-09-07T17:56:38;10.68;;;4.90;;
48795;SDS011;34607;48.520;-1.330;2023-09-07T17:59:06;7.35;;;4.47;;
48795;SDS011;34607;48.520;-1.330;2023-09-07T18:01:34;10.32;;;5.03;;
48795;SDS011;34607;48.520;-1.330;2023-09-07T18:04:01;10.77;;;5.07;;
48795;SDS011;34607;48.520;-1.330;2023-09-07T18:06:28;8.85;;;4.75;;
48795;SDS011;34607;48.520;-1.330;2023-09-07T18:08:58;15.55;;;5.50;;
48795;SDS011;34607;48.520;-1.330;2023-09-07T18:11:26;13.70;;;4.93;;
48795;SDS011;34607;48.520;-1.330;2023-09-07T18:13:53;12.20;;;4.55;;
48795;SDS011;34607;48.520;-1.330;2023-09-07T18:16:21;9.68;;;4.93;;
48795;SDS011;34607;48.520;-1.330;2023-09-07T18:18:48;9.77;;;4.80;;
48795;SDS011;34607;48.520;-1.330;2023-09-07T18:21:16;12.48;;;5.43;;
48795;SDS011;34607;48.520;-1.330;2023-09-07T18:23:43;9.90;;;5.32;;
48795;SDS011;34607;48.520;-1.330;2023-09-07T18:26:11;11.05;;;5.13;;
48795;SDS011;34607;48.520;-1.330;2023-09-07T18:28:38;9.63;;;5.32;;
48795;SDS011;34607;48.520;-1.330;2023-09-07T18:31:07;9.40;;;5.03;;
48795;SDS011;34607;48.520;-1.330;2023-09-07T18:33:36;13.18;;;5.13;;
48795;SDS011;34607;48.520;-1.330;2023-09-07T18:36:03;11.60;;;4.88;;
48795;SDS011;34607;48.520;-1.330;2023-09-07T18:38:31;10.00;;;5.00;;
48795;SDS011;34607;48.520;-1.330;2023-09-07T18:40:59;10.43;;;5.63;;
48795;SDS011;34607;48.520;-1.330;2023-09-07T18:43:26;13.13;;;5.65;;
48795;SDS011;34607;48.520;-1.330;2023-09-07T18:45:54;10.38;;;4.90;;
48795;SDS011;34607;48.520;-1.330;2023-09-07T18:48:21;12.43;;;4.65;;
48795;SDS011;34607;48.520;-1.330;2023-09-07T18:50:49;13.90;;;5.18;;
48795;SDS011;34607;48.520;-1.330;2023-09-07T18:53:16;8.35;;;4.93;;
48795;SDS011;34607;48.520;-1.330;2023-09-07T18:55:43;13.73;;;5.85;;
48795;SDS011;34607;48.520;-1.330;2023-09-07T18:58:10;11.98;;;4.80;;
48795;SDS011;34607;48.520;-1.330;2023-09-07T19:00:37;13.82;;;4.93;;
48795;SDS011;34607;48.520;-1.330;2023-09-07T19:03:04;10.80;;;5.22;;
48795;SDS011;34607;48.520;-1.330;2023-09-07T19:05:31;11.80;;;5.05;;
48795;SDS011;34607;48.520;-1.330;2023-09-07T19:08:00;15.73;;;5.55;;
48795;SDS011;34607;48.520;-1.330;2023-09-07T19:10:27;10.73;;;4.97;;
48795;SDS011;34607;48.520;-1.330;2023-09-07T19:12:54;13.32;;;5.70;;
48795;SDS011;34607;48.520;-1.330;2023-09-07T19:15:21;9.18;;;4.97;;
48795;SDS011;34607;48.520;-1.330;2023-09-07T19:17:49;16.02;;;6.38;;
48795;SDS011;34607;48.520;-1.330;2023-09-07T19:20:16;20.80;;;5.40;;
48795;SDS011;34607;48.520;-1.330;2023-09-07T19:22:43;10.27;;;5.05;;
48795;SDS011;34607;48.520;-1.330;2023-09-07T19:25:11;10.20;;;4.40;;
48795;SDS011;34607;48.520;-1.330;2023-09-07T19:27:39;12.07;;;4.60;;
48795;SDS011;34607;48.520;-1.330;2023-09-07T19:30:06;6.97;;;4.78;;
48795;SDS011;34607;48.520;-1.330;2023-09-07T19:32:34;18.13;;;6.10;;
48795;SDS011;34607;48.520;-1.330;2023-09-07T19:35:01;11.05;;;4.97;;
48795;SDS011;34607;48.520;-1.330;2023-09-07T19:37:30;16.45;;;5.30;;
48795;SDS011;34607;48.520;-1.330;2023-09-07T19:39:57;14.27;;;5.55;;
48795;SDS011;34607;48.520;-1.330;2023-09-07T19:42:26;17.05;;;6.22;;
48795;SDS011;34607;48.520;-1.330;2023-09-07T19:44:53;17.98;;;6.13;;
48795;SDS011;34607;48.520;-1.330;2023-09-07T19:47:21;18.25;;;5.38;;
48795;SDS011;34607;48.520;-1.330;2023-09-07T19:49:48;13.32;;;5.88;;
48795;SDS011;34607;48.520;-1.330;2023-09-07T19:52:15;11.45;;;5.13;;
48795;SDS011;34607;48.520;-1.330;2023-09-07T19:54:42;16.92;;;5.70;;
48795;SDS011;34607;48.520;-1.330;2023-09-07T19:57:09;16.38;;;5.40;;
48795;SDS011;34607;48.520;-1.330;2023-09-07T19:59:38;10.82;;;5.15;;
48795;SDS011;34607;48.520;-1.330;2023-09-07T20:02:05;12.63;;;4.90;;
48795;SDS011;34607;48.520;-1.330;2023-09-07T20:04:32;11.57;;;5.45;;
48795;SDS011;34607;48.520;-1.330;2023-09-07T20:06:59;17.90;;;5.72;;
48795;SDS011;34607;48.520;-1.330;2023-09-07T20:09:28;14.00;;;5.60;;
48795;SDS011;34607;48.520;-1.330;2023-09-07T20:11:56;13.27;;;5.88;;
48795;SDS011;34607;48.520;-1.330;2023-09-07T20:14:25;17.30;;;5.78;;
48795;SDS011;34607;48.520;-1.330;2023-09-07T20:16:54;11.95;;;5.00;;
48795;SDS011;34607;48.520;-1.330;2023-09-07T20:19:21;17.73;;;6.53;;
48795;SDS011;34607;48.520;-1.330;2023-09-07T20:21:48;12.98;;;5.70;;
48795;SDS011;34607;48.520;-1.330;2023-09-07T20:24:15;13.07;;;5.38;;
48795;SDS011;34607;48.520;-1.330;2023-09-07T20:26:42;10.55;;;5.50;;
48795;SDS011;34607;48.520;-1.330;2023-09-07T20:29:09;16.83;;;6.78;;
48795;SDS011;34607;48.520;-1.330;2023-09-07T20:31:36;9.35;;;5.03;;
48795;SDS011;34607;48.520;-1.330;2023-09-07T20:34:05;14.05;;;5.60;;
48795;SDS011;34607;48.520;-1.330;2023-09-07T20:36:32;11.18;;;5.25;;
48795;SDS011;34607;48.520;-1.330;2023-09-07T20:38:59;20.13;;;7.20;;
48795;SDS011;34607;48.520;-1.330;2023-09-07T20:41:26;11.48;;;6.28;;
48795;SDS011;34607;48.520;-1.330;2023-09-07T20:43:53;15.93;;;6.25;;
48795;SDS011;34607;48.520;-1.330;2023-09-07T20:46:20;11.60;;;5.43;;
48795;SDS011;34607;48.520;-1.330;2023-09-07T20:48:47;15.35;;;6.10;;
48795;SDS011;34607;48.520;-1.330;2023-09-07T20:51:16;10.05;;;5.95;;
48795;SDS011;34607;48.520;-1.330;2023-09-07T20:53:43;11.60;;;5.90;;
48795;SDS011;34607;48.520;-1.330;2023-09-07T20:56:10;10.98;;;5.95;;
48795;SDS011;34607;48.520;-1.330;2023-09-07T20:58:37;11.65;;;6.00;;
48795;SDS011;34607;48.520;-1.330;2023-09-07T21:01:04;14.63;;;6.45;;
48795;SDS011;34607;48.520;-1.330;2023-09-07T21:03:31;10.35;;;6.47;;
48795;SDS011;34607;48.520;-1.330;2023-09-07T21:05:58;16.20;;;6.82;;
